createdAt,value
2023-02-09T00:01:31.894Z,76.20
2023-02-09T00:04:00.662Z,77.25
2023-02-09T00:06:30.012Z,79.18
2023-02-09T00:08:59.051Z,65.47
2023-02-09T00:11:50.130Z,79.35
2023-02-09T00:14:21.991Z,77.00
2023-02-09T00:16:50.510Z,69.88
2023-02-09T00:19:20.451Z,73.05
2023-02-09T00:21:48.327Z,76.43
2023-02-09T00:24:16.244Z,72.68
2023-02-09T00:26:44.183Z,89.85
2023-02-09T00:29:12.949Z,88.03
2023-02-09T00:31:40.701Z,81.30
2023-02-09T00:34:09.005Z,73.20
2023-02-09T00:36:36.597Z,84.15
2023-02-09T00:39:04.894Z,112.13
2023-02-09T00:41:51.972Z,98.15
2023-02-09T00:44:19.944Z,90.40
2023-02-09T00:46:49.213Z,77.55
2023-02-09T00:49:17.041Z,86.10
2023-02-09T00:51:44.893Z,78.88
2023-02-09T00:54:13.598Z,85.07
2023-02-09T00:56:41.140Z,79.88
2023-02-09T00:59:09.405Z,79.18
2023-02-09T01:01:37.849Z,74.70
2023-02-09T01:04:06.159Z,70.15
2023-02-09T01:06:34.265Z,68.32
2023-02-09T01:09:02.695Z,69.32
2023-02-09T01:11:30.495Z,69.97
2023-02-09T01:14:00.011Z,69.57
2023-02-09T01:16:28.966Z,64.63
2023-02-09T01:18:59.184Z,72.65
2023-02-09T01:21:27.325Z,71.68
2023-02-09T01:23:55.662Z,67.95
2023-02-09T01:26:23.581Z,72.20
2023-02-09T01:28:54.520Z,66.70
2023-02-09T01:31:34.858Z,70.53
2023-02-09T01:34:04.086Z,73.65
2023-02-09T01:36:32.984Z,74.55
2023-02-09T01:39:02.410Z,67.38
2023-02-09T01:41:30.319Z,71.40
2023-02-09T01:44:11.912Z,70.25
2023-02-09T01:46:40.100Z,74.70
2023-02-09T01:49:18.247Z,74.45
2023-02-09T01:52:15.196Z,70.30
2023-02-09T01:54:48.921Z,67.93
2023-02-09T01:59:52.839Z,72.40
2023-02-09T02:02:21.818Z,70.55
2023-02-09T02:04:51.233Z,70.68
2023-02-09T02:07:45.569Z,75.60
2023-02-09T02:10:13.964Z,68.65
2023-02-09T02:12:43.012Z,74.25
2023-02-09T02:15:12.854Z,68.32
2023-02-09T02:18:01.968Z,68.60
2023-02-09T02:20:41.758Z,66.80
2023-02-09T02:23:43.195Z,73.85
2023-02-09T02:26:43.899Z,66.82
2023-02-09T02:30:03.025Z,65.28
2023-02-09T02:33:12.986Z,70.50
2023-02-09T02:35:44.600Z,73.13
2023-02-09T02:38:33.422Z,75.32
2023-02-09T02:41:15.040Z,63.60
2023-02-09T02:43:54.328Z,69.43
2023-02-09T02:46:26.362Z,71.65
2023-02-09T02:49:00.732Z,68.35
2023-02-09T02:51:35.479Z,63.08
2023-02-09T02:54:08.355Z,66.88
2023-02-09T02:56:51.023Z,69.33
2023-02-09T02:59:27.066Z,64.15
2023-02-09T03:02:06.346Z,64.60
2023-02-09T03:04:36.683Z,57.42
2023-02-09T03:07:09.167Z,70.03
2023-02-09T03:09:37.030Z,71.22
2023-02-09T03:12:16.287Z,67.63
2023-02-09T03:15:07.878Z,62.05
2023-02-09T03:17:54.127Z,65.85
2023-02-09T03:20:29.818Z,63.17
2023-02-09T03:23:02.612Z,65.00
2023-02-09T03:25:43.759Z,61.92
2023-02-09T03:28:20.307Z,60.30
2023-02-09T03:30:50.201Z,64.85
2023-02-09T03:33:29.613Z,71.95
2023-02-09T03:36:00.176Z,66.18
2023-02-09T03:38:28.205Z,59.13
2023-02-09T03:40:56.183Z,69.80
2023-02-09T03:43:46.473Z,55.85
2023-02-09T03:46:14.543Z,64.07
2023-02-09T03:48:42.101Z,63.78
2023-02-09T03:51:10.406Z,68.70
2023-02-09T03:53:37.954Z,65.28
2023-02-09T03:56:09.302Z,67.68
2023-02-09T03:58:37.716Z,61.70
2023-02-09T04:01:08.042Z,65.60
2023-02-09T04:03:36.592Z,62.58
2023-02-09T04:06:04.829Z,69.68
2023-02-09T04:08:33.255Z,58.95
2023-02-09T04:11:01.275Z,61.95
2023-02-09T04:13:29.137Z,59.15
2023-02-09T04:15:57.164Z,63.72
2023-02-09T04:18:24.954Z,64.38
2023-02-09T04:20:52.810Z,62.45
2023-02-09T04:23:21.201Z,65.68
2023-02-09T04:25:49.282Z,62.33
2023-02-09T04:28:18.511Z,58.47
2023-02-09T04:30:51.151Z,66.20
2023-02-09T04:33:18.725Z,63.72
2023-02-09T04:35:48.848Z,72.47
2023-02-09T04:38:19.438Z,60.25
2023-02-09T04:40:48.327Z,67.47
2023-02-09T04:43:15.986Z,60.10
2023-02-09T04:45:44.408Z,60.80
2023-02-09T04:48:18.607Z,68.72
2023-02-09T04:50:47.342Z,73.05
2023-02-09T04:53:15.602Z,66.65
2023-02-09T04:55:45.360Z,66.38
2023-02-09T04:58:34.301Z,66.10
2023-02-09T05:01:03.117Z,64.05
2023-02-09T05:03:31.583Z,65.43
2023-02-09T05:06:02.086Z,82.05
2023-02-09T05:08:30.407Z,67.32
2023-02-09T05:10:58.671Z,64.47
2023-02-09T05:13:27.039Z,70.82
2023-02-09T05:15:55.452Z,67.70
2023-02-09T05:18:24.449Z,77.60
2023-02-09T05:20:52.409Z,72.30
2023-02-09T05:23:20.664Z,67.68
2023-02-09T05:25:48.589Z,63.75
2023-02-09T05:28:16.572Z,70.97
2023-02-09T05:30:44.988Z,68.05
2023-02-09T05:33:12.794Z,65.68
2023-02-09T05:35:40.636Z,70.25
2023-02-09T05:38:08.240Z,67.70
2023-02-09T05:40:36.060Z,73.85
2023-02-09T05:43:03.710Z,69.13
2023-02-09T05:45:31.624Z,78.78
2023-02-09T05:47:59.208Z,74.25
2023-02-09T05:50:27.154Z,71.30
2023-02-09T05:52:58.196Z,74.68
2023-02-09T05:55:26.420Z,77.65
2023-02-09T05:57:54.012Z,75.32
2023-02-09T06:00:23.742Z,84.22
2023-02-09T06:02:51.662Z,78.68
2023-02-09T06:05:21.944Z,76.72
2023-02-09T06:07:49.749Z,76.47
2023-02-09T06:10:18.733Z,84.93
2023-02-09T06:12:46.757Z,70.97
2023-02-09T06:15:16.459Z,80.13
2023-02-09T06:17:44.526Z,86.28
2023-02-09T06:20:12.765Z,72.10
2023-02-09T06:22:40.726Z,70.68
2023-02-09T06:25:08.974Z,73.38
2023-02-09T06:27:36.909Z,75.45
2023-02-09T06:30:06.110Z,74.93
2023-02-09T06:32:33.833Z,78.05
2023-02-09T06:35:01.721Z,80.18
2023-02-09T06:37:29.351Z,76.70
2023-02-09T06:39:57.232Z,76.65
2023-02-09T06:42:24.904Z,71.63
2023-02-09T06:44:52.758Z,77.85
2023-02-09T06:47:20.433Z,74.72
2023-02-09T06:49:48.260Z,80.97
2023-02-09T06:52:15.965Z,74.70
2023-02-09T06:54:45.138Z,80.95
2023-02-09T06:57:12.823Z,71.80
2023-02-09T06:59:40.604Z,66.90
2023-02-09T07:02:11.080Z,75.28
2023-02-09T07:04:38.918Z,77.45
2023-02-09T07:07:06.551Z,68.88
2023-02-09T07:09:34.486Z,64.38
2023-02-09T07:12:02.051Z,64.82
2023-02-09T07:14:29.913Z,72.82
2023-02-09T07:16:57.898Z,68.50
2023-02-09T07:19:25.797Z,71.25
2023-02-09T07:21:53.492Z,61.75
2023-02-09T07:24:21.465Z,66.18
2023-02-09T07:26:49.144Z,67.05
2023-02-09T07:29:17.335Z,66.28
2023-02-09T07:31:45.083Z,62.42
2023-02-09T07:34:12.994Z,66.35
2023-02-09T07:36:40.562Z,63.03
2023-02-09T07:39:08.709Z,67.38
2023-02-09T07:41:36.435Z,65.82
2023-02-09T07:44:04.218Z,60.30
2023-02-09T07:46:31.926Z,64.07
2023-02-09T07:49:01.489Z,64.22
2023-02-09T07:51:29.688Z,62.88
2023-02-09T07:53:59.435Z,60.88
2023-02-09T07:56:27.946Z,64.60
2023-02-09T07:58:56.380Z,68.78
2023-02-09T08:01:24.884Z,67.85
2023-02-09T08:03:52.908Z,69.00
2023-02-09T08:06:41.094Z,64.57
2023-02-09T08:09:11.773Z,66.25
2023-02-09T08:11:45.815Z,69.68
2023-02-09T08:14:20.032Z,63.85
2023-02-09T08:16:49.928Z,65.95
2023-02-09T08:19:22.046Z,76.05
2023-02-09T08:21:51.140Z,68.72
2023-02-09T08:24:20.956Z,68.28
2023-02-09T08:26:48.533Z,63.90
2023-02-09T08:29:16.515Z,61.85
2023-02-09T08:31:44.328Z,60.05
2023-02-09T08:34:12.205Z,64.72
2023-02-09T08:36:41.447Z,59.00
2023-02-09T08:39:10.129Z,68.68
2023-02-09T08:41:37.956Z,68.90
2023-02-09T08:44:05.965Z,64.65
2023-02-09T08:46:36.012Z,65.20
2023-02-09T08:49:04.193Z,60.83
2023-02-09T08:51:31.693Z,62.38
2023-02-09T08:53:59.600Z,61.80
2023-02-09T08:56:27.352Z,62.67
2023-02-09T08:58:55.309Z,63.95
2023-02-09T09:01:23.066Z,63.47
2023-02-09T09:03:51.103Z,63.50
2023-02-09T09:06:18.956Z,67.03
2023-02-09T09:08:46.949Z,68.47
2023-02-09T09:11:14.914Z,64.85
2023-02-09T09:13:43.403Z,64.05
2023-02-09T09:16:16.611Z,56.38
2023-02-09T09:18:45.338Z,67.55
2023-02-09T09:21:14.490Z,62.15
2023-02-09T09:23:43.554Z,62.60
2023-02-09T09:26:11.580Z,69.18
2023-02-09T09:28:39.589Z,70.38
2023-02-09T09:31:12.448Z,60.75
2023-02-09T09:33:41.760Z,70.35
2023-02-09T09:36:10.443Z,65.13
2023-02-09T09:38:39.690Z,68.72
2023-02-09T09:41:33.002Z,69.22
2023-02-09T09:44:02.542Z,63.65
2023-02-09T09:46:39.539Z,67.32
2023-02-09T09:49:18.786Z,71.95
2023-02-09T09:51:52.444Z,65.03
2023-02-09T09:56:51.315Z,69.95
2023-02-09T09:59:26.731Z,66.25
2023-02-09T10:01:56.378Z,72.22
2023-02-09T10:04:24.404Z,67.45
2023-02-09T10:07:10.886Z,59.08
2023-02-09T10:09:44.684Z,62.70
2023-02-09T10:12:36.025Z,68.32
2023-02-09T10:15:33.821Z,71.47
2023-02-09T10:18:02.104Z,63.55
2023-02-09T10:20:48.810Z,60.35
2023-02-09T10:23:24.135Z,65.28
2023-02-09T10:25:52.278Z,65.55
2023-02-09T10:28:22.630Z,61.45
2023-02-09T10:30:56.176Z,57.47
2023-02-09T10:33:24.373Z,62.60
2023-02-09T10:35:54.986Z,56.60
2023-02-09T10:38:28.093Z,55.33
2023-02-09T10:40:56.202Z,50.90
2023-02-09T10:43:33.803Z,49.13
2023-02-09T10:46:10.381Z,48.25
2023-02-09T10:48:43.535Z,47.85
2023-02-09T10:51:28.959Z,31.80
2023-02-09T10:54:04.815Z,47.78
2023-02-09T10:56:45.762Z,49.45
2023-02-09T10:59:19.103Z,44.60
2023-02-09T11:02:02.085Z,44.55
2023-02-09T11:04:40.820Z,45.33
2023-02-09T11:07:18.104Z,46.75
2023-02-09T11:09:49.223Z,38.03
2023-02-09T11:12:20.439Z,38.70
2023-02-09T11:14:48.603Z,38.40
2023-02-09T11:17:21.663Z,42.33
2023-02-09T11:20:10.952Z,38.13
2023-02-09T11:23:06.828Z,44.03
2023-02-09T11:26:09.081Z,41.80
2023-02-09T11:28:58.013Z,44.78
2023-02-09T11:31:40.309Z,41.30
2023-02-09T11:34:52.607Z,41.33
2023-02-09T11:37:25.985Z,43.25
2023-02-09T11:40:19.479Z,43.50
2023-02-09T11:42:59.323Z,37.95
2023-02-09T11:45:50.118Z,37.90
2023-02-09T11:48:20.905Z,43.47
2023-02-09T11:51:10.024Z,41.60
2023-02-09T11:53:49.405Z,39.35
2023-02-09T11:56:21.023Z,41.25
2023-02-09T11:59:21.823Z,39.25
2023-02-09T12:02:18.701Z,34.05
2023-02-09T12:04:58.688Z,36.70
2023-02-09T12:07:48.773Z,38.35
2023-02-09T12:10:34.175Z,37.22
2023-02-09T12:13:12.731Z,37.17
2023-02-09T12:15:52.259Z,41.17
2023-02-09T12:18:24.392Z,41.67
2023-02-09T12:20:53.962Z,36.95
2023-02-09T12:23:41.573Z,45.17
2023-02-09T12:26:12.207Z,41.30
2023-02-09T12:28:53.909Z,41.00
2023-02-09T12:31:26.840Z,40.53
2023-02-09T12:34:10.840Z,39.53
2023-02-09T12:36:59.977Z,41.22
2023-02-09T12:39:29.787Z,41.92
2023-02-09T12:42:03.488Z,45.20
2023-02-09T12:44:31.428Z,35.90
2023-02-09T12:46:59.023Z,35.03
2023-02-09T12:49:30.021Z,31.17
2023-02-09T12:52:10.066Z,36.35
2023-02-09T12:54:56.714Z,34.13
2023-02-09T12:57:45.679Z,32.63
2023-02-09T13:00:15.175Z,36.95
2023-02-09T13:02:56.584Z,46.35
2023-02-09T13:05:29.062Z,37.53
2023-02-09T13:08:05.271Z,42.35
2023-02-09T13:10:50.796Z,38.38
2023-02-09T13:13:20.690Z,43.13
2023-02-09T13:15:54.513Z,36.75
2023-02-09T13:18:59.538Z,38.17
2023-02-09T13:21:56.318Z,37.47
2023-02-09T13:24:47.313Z,32.72
2023-02-09T13:27:21.016Z,36.05
2023-02-09T13:29:53.872Z,43.92
2023-02-09T13:32:52.379Z,36.73
2023-02-09T13:35:27.246Z,33.58
2023-02-09T13:37:57.495Z,31.38
2023-02-09T13:40:35.463Z,32.03
2023-02-09T13:43:13.036Z,32.90
2023-02-09T13:45:54.995Z,34.03
2023-02-09T13:48:26.118Z,33.65
2023-02-09T13:50:55.480Z,30.35
2023-02-09T13:53:25.558Z,27.60
2023-02-09T13:55:56.028Z,30.45
2023-02-09T13:58:30.986Z,32.63
2023-02-09T14:01:05.219Z,31.17
2023-02-09T14:03:56.775Z,24.77
2023-02-09T14:06:25.259Z,30.02
2023-02-09T14:08:55.093Z,28.20
2023-02-09T14:11:44.140Z,27.48
2023-02-09T14:15:00.334Z,26.08
2023-02-09T14:17:31.406Z,29.55
2023-02-09T14:20:00.241Z,29.42
2023-02-09T14:22:54.463Z,32.03
2023-02-09T14:27:54.501Z,30.50
2023-02-09T14:30:26.593Z,29.60
2023-02-09T14:32:57.543Z,29.05
2023-02-09T14:35:29.048Z,29.13
2023-02-09T14:38:00.046Z,25.95
2023-02-09T14:40:28.055Z,29.98
2023-02-09T14:43:08.972Z,27.05
2023-02-09T14:45:39.928Z,26.88
2023-02-09T14:48:18.554Z,28.30
2023-02-09T14:50:48.594Z,24.08
2023-02-09T14:53:18.098Z,22.45
2023-02-09T14:55:46.362Z,24.95
2023-02-09T14:58:21.822Z,19.80
2023-02-09T15:00:51.049Z,24.02
2023-02-09T15:03:18.660Z,26.30
2023-02-09T15:05:52.347Z,24.35
2023-02-09T15:08:23.764Z,22.40
2023-02-09T15:10:56.667Z,21.77
2023-02-09T15:13:25.429Z,22.58
2023-02-09T15:15:53.341Z,23.33
2023-02-09T15:18:23.768Z,26.63
2023-02-09T15:20:52.176Z,25.65
2023-02-09T15:23:20.207Z,23.73
2023-02-09T15:25:48.739Z,24.98
2023-02-09T15:28:32.319Z,22.08
2023-02-09T15:31:00.555Z,22.92
2023-02-09T15:33:29.528Z,22.35
2023-02-09T15:35:59.973Z,26.92
2023-02-09T15:38:28.017Z,19.42
2023-02-09T15:41:14.929Z,27.60
2023-02-09T15:44:00.909Z,25.55
2023-02-09T15:46:47.320Z,24.73
2023-02-09T15:49:14.876Z,31.23
2023-02-09T15:51:42.985Z,29.50
2023-02-09T15:54:17.853Z,30.65
2023-02-09T15:56:46.132Z,27.15
2023-02-09T15:59:23.041Z,32.70
2023-02-09T16:01:52.338Z,31.17
2023-02-09T16:04:20.041Z,26.38
2023-02-09T16:06:54.342Z,26.33
2023-02-09T16:09:26.639Z,28.90
2023-02-09T16:11:55.056Z,29.02
2023-02-09T16:14:24.673Z,30.17
2023-02-09T16:16:53.073Z,29.50
2023-02-09T16:19:21.488Z,27.58
2023-02-09T16:21:53.039Z,32.30
2023-02-09T16:24:42.166Z,31.42
2023-02-09T16:27:28.389Z,32.40
2023-02-09T16:29:57.831Z,30.17
2023-02-09T16:32:28.467Z,28.80
2023-02-09T16:35:04.479Z,32.72
2023-02-09T16:37:39.181Z,28.65
2023-02-09T16:40:15.133Z,34.13
2023-02-09T16:42:43.742Z,34.72
2023-02-09T16:45:16.276Z,34.60
2023-02-09T16:47:49.690Z,35.00
2023-02-09T16:50:25.124Z,34.70
2023-02-09T16:52:55.755Z,35.38
2023-02-09T16:55:27.361Z,33.30
2023-02-09T16:57:57.666Z,33.55
2023-02-09T17:00:32.179Z,32.30
2023-02-09T17:03:14.073Z,34.38
2023-02-09T17:05:48.473Z,35.42
2023-02-09T17:08:22.520Z,31.85
2023-02-09T17:10:52.404Z,33.97
2023-02-09T17:13:21.404Z,33.70
2023-02-09T17:15:51.600Z,36.33
2023-02-09T17:18:28.482Z,34.53
2023-02-09T17:21:01.591Z,32.67
2023-02-09T17:23:30.572Z,39.65
2023-02-09T17:25:58.956Z,35.80
2023-02-09T17:28:28.384Z,44.15
2023-02-09T17:31:01.883Z,40.70
2023-02-09T17:38:48.518Z,48.17
2023-02-09T17:41:20.508Z,47.67
2023-02-09T17:43:50.739Z,53.72
2023-02-09T17:46:19.821Z,50.97
2023-02-09T17:48:48.269Z,49.30
2023-02-09T17:51:34.493Z,50.13
2023-02-09T17:54:06.452Z,51.47
2023-02-09T17:56:34.319Z,52.70
2023-02-09T17:59:08.082Z,50.95
2023-02-09T18:01:41.970Z,55.70
2023-02-09T18:04:20.088Z,50.15
2023-02-09T18:06:48.371Z,50.67
2023-02-09T18:09:16.577Z,53.38
2023-02-09T18:11:47.191Z,53.78
2023-02-09T18:14:16.539Z,50.58
2023-02-09T18:16:45.108Z,51.33
2023-02-09T18:19:13.999Z,46.20
2023-02-09T18:22:11.807Z,53.22
2023-02-09T18:24:40.063Z,47.25
2023-02-09T18:27:08.809Z,56.15
2023-02-09T18:29:36.689Z,49.80
2023-02-09T18:32:04.657Z,46.47
2023-02-09T18:34:32.750Z,49.03
2023-02-09T18:37:00.297Z,51.40
2023-02-09T18:39:28.172Z,51.67
2023-02-09T18:41:55.762Z,50.55
2023-02-09T18:44:28.875Z,48.40
2023-02-09T18:49:17.577Z,51.65
2023-02-09T18:51:45.711Z,45.60
2023-02-09T18:54:13.249Z,54.85
2023-02-09T18:56:41.183Z,52.38
2023-02-09T18:59:08.811Z,47.00
2023-02-09T19:01:36.923Z,41.20
2023-02-09T19:04:04.816Z,46.30
2023-02-09T19:06:35.409Z,45.90
2023-02-09T19:09:03.037Z,48.78
2023-02-09T19:11:30.925Z,48.63
2023-02-09T19:14:17.076Z,44.40
2023-02-09T19:16:44.910Z,42.40
2023-02-09T19:19:13.405Z,45.95
2023-02-09T19:21:41.239Z,46.20
2023-02-09T19:24:08.862Z,40.15
2023-02-09T19:26:36.746Z,46.22
2023-02-09T19:29:04.297Z,42.83
2023-02-09T19:31:32.270Z,49.30
2023-02-09T19:33:59.943Z,45.72
2023-02-09T19:36:28.308Z,41.60
2023-02-09T19:38:56.737Z,46.00
2023-02-09T19:41:25.725Z,44.80
2023-02-09T19:43:57.626Z,45.40
2023-02-09T19:46:26.102Z,45.47
2023-02-09T19:48:53.931Z,47.53
2023-02-09T19:51:22.615Z,42.80
2023-02-09T19:53:50.730Z,46.65
2023-02-09T19:56:20.852Z,46.58
2023-02-09T19:58:48.425Z,46.28
2023-02-09T20:01:17.177Z,42.17
2023-02-09T20:03:44.915Z,43.65
2023-02-09T20:06:14.245Z,48.63
2023-02-09T20:08:42.273Z,40.45
2023-02-09T20:11:12.951Z,47.30
2023-02-09T20:13:41.068Z,46.50
2023-02-09T20:16:23.440Z,48.83
2023-02-09T20:18:52.213Z,53.45
2023-02-09T20:21:22.201Z,49.05
2023-02-09T20:23:53.237Z,43.33
2023-02-09T20:26:25.966Z,50.67
2023-02-09T20:28:54.236Z,47.58
2023-02-09T20:31:27.529Z,49.05
2023-02-09T20:33:55.948Z,48.03
2023-02-09T20:36:25.578Z,45.22
2023-02-09T20:38:53.697Z,48.20
2023-02-09T20:41:21.558Z,49.38
2023-02-09T20:44:07.674Z,50.53
2023-02-09T20:46:55.903Z,50.08
2023-02-09T20:49:26.005Z,48.85
2023-02-09T20:51:53.976Z,49.45
2023-02-09T20:54:21.577Z,52.25
2023-02-09T20:56:49.608Z,53.72
2023-02-09T20:59:17.855Z,47.92
2023-02-09T21:01:45.998Z,50.08
2023-02-09T21:04:13.665Z,57.05
2023-02-09T21:06:41.548Z,50.47
2023-02-09T21:09:11.933Z,55.70
2023-02-09T21:11:40.100Z,56.55
2023-02-09T21:14:13.228Z,54.90
2023-02-09T21:16:45.343Z,51.63
2023-02-09T21:19:13.001Z,56.65
2023-02-09T21:21:40.921Z,51.95
2023-02-09T21:24:08.600Z,48.65
2023-02-09T21:26:40.226Z,53.67
2023-02-09T21:29:08.356Z,46.15
2023-02-09T21:31:36.397Z,50.53
2023-02-09T21:34:04.528Z,61.60
2023-02-09T21:36:32.704Z,49.75
2023-02-09T21:39:00.879Z,53.08
2023-02-09T21:41:47.180Z,54.30
2023-02-09T21:44:15.223Z,51.97
2023-02-09T21:46:43.572Z,50.55
2023-02-09T21:49:12.837Z,54.00
2023-02-09T21:51:41.925Z,53.17
2023-02-09T21:54:14.744Z,51.85
2023-02-09T21:56:43.339Z,52.92
2023-02-09T21:59:11.397Z,53.30
2023-02-09T22:01:40.744Z,49.50
2023-02-09T22:04:08.682Z,51.67
2023-02-09T22:06:36.623Z,52.53
2023-02-09T22:09:06.290Z,50.20
2023-02-09T22:11:34.524Z,50.67
2023-02-09T22:14:02.177Z,57.10
2023-02-09T22:16:30.227Z,48.88
2023-02-09T22:18:58.713Z,47.88
2023-02-09T22:21:27.019Z,53.05
2023-02-09T22:23:55.131Z,51.88
2023-02-09T22:26:23.286Z,53.25
2023-02-09T22:28:50.996Z,48.75
2023-02-09T22:31:20.984Z,49.72
2023-02-09T22:33:53.907Z,46.92
2023-02-09T22:36:23.391Z,53.53
2023-02-09T22:38:51.786Z,53.45
2023-02-09T22:41:22.017Z,53.90
2023-02-09T22:43:56.540Z,50.42
2023-02-09T22:46:27.483Z,52.33
2023-02-09T22:48:57.438Z,46.88
2023-02-09T22:51:28.388Z,46.72
2023-02-09T22:53:56.916Z,50.03
2023-02-09T22:56:25.911Z,47.20
2023-02-09T22:58:54.876Z,46.78
2023-02-09T23:01:23.138Z,52.10
2023-02-09T23:03:51.176Z,49.65
2023-02-09T23:06:27.073Z,44.25
2023-02-09T23:09:00.600Z,43.78
2023-02-09T23:11:30.223Z,48.58
2023-02-09T23:14:14.069Z,43.90
2023-02-09T23:16:43.607Z,48.35
2023-02-09T23:19:17.171Z,45.80
2023-02-09T23:21:47.756Z,47.35
2023-02-09T23:24:18.266Z,44.45
2023-02-09T23:26:46.107Z,46.58
2023-02-09T23:29:15.874Z,47.45
2023-02-09T23:31:45.378Z,48.90
2023-02-09T23:34:19.441Z,46.15
2023-02-09T23:36:48.107Z,43.63
2023-02-09T23:39:18.718Z,43.20
2023-02-09T23:41:46.802Z,50.97
2023-02-09T23:44:14.509Z,42.47
2023-02-09T23:46:42.613Z,41.80
2023-02-09T23:49:11.009Z,41.55
2023-02-09T23:51:38.867Z,44.33
2023-02-09T23:54:07.635Z,43.83
2023-02-09T23:56:38.823Z,43.33
2023-02-09T23:59:10.124Z,48.35
